createdAt,value
2018-07-20T00:07:25.852Z,20.5
2018-07-20T00:17:25.094Z,20.5
2018-07-20T00:27:24.333Z,20.5
2018-07-20T00:37:23.573Z,20.5
2018-07-20T00:47:22.812Z,20.6
2018-07-20T00:57:22.052Z,20.7
2018-07-20T01:07:21.295Z,20.7
2018-07-20T01:17:20.533Z,20.8
2018-07-20T01:27:19.778Z,20.8
2018-07-20T01:37:19.013Z,20.9
2018-07-20T01:47:18.256Z,20.9
2018-07-20T01:57:17.493Z,20.9
2018-07-20T02:07:16.735Z,20.9
2018-07-20T02:17:15.975Z,20.9
2018-07-20T02:27:15.214Z,20.9
2018-07-20T02:37:14.454Z,20.9
2018-07-20T02:47:13.695Z,20.9
2018-07-20T02:57:12.936Z,21
2018-07-20T03:07:12.176Z,21.1
2018-07-20T03:17:11.469Z,21
2018-07-20T03:27:10.658Z,21.1
2018-07-20T03:37:09.902Z,21.1
2018-07-20T03:47:09.137Z,21.1
2018-07-20T03:57:08.377Z,21.2
2018-07-20T04:07:07.619Z,21.2
2018-07-20T04:17:06.864Z,21.3
2018-07-20T04:27:06.102Z,21.4
2018-07-20T04:37:05.336Z,21.5
2018-07-20T04:47:04.577Z,21.6
2018-07-20T04:57:03.820Z,21.7
2018-07-20T05:07:03.059Z,21.7
2018-07-20T05:17:02.298Z,21.8
2018-07-20T05:27:01.539Z,21.9
2018-07-20T05:37:00.785Z,22.1
2018-07-20T05:47:00.022Z,22.3
2018-07-20T05:56:59.260Z,22.6
2018-07-20T06:06:58.499Z,23.1
2018-07-20T06:16:57.736Z,23.6
2018-07-20T06:26:56.976Z,23.9
2018-07-20T06:36:56.217Z,24
2018-07-20T06:46:55.457Z,23.9
2018-07-20T06:56:54.698Z,23.9
2018-07-20T07:06:53.937Z,24.3
2018-07-20T07:16:53.178Z,24.7
2018-07-20T07:26:52.417Z,25.1
2018-07-20T07:36:51.662Z,25.6
2018-07-20T07:46:50.897Z,25.4
2018-07-20T07:56:50.136Z,25.9
2018-07-20T08:06:49.378Z,26.6
2018-07-20T08:16:48.616Z,27.1
2018-07-20T08:26:47.856Z,26.9
2018-07-20T08:36:47.099Z,26.6
2018-07-20T08:46:46.343Z,26.7
2018-07-20T08:56:45.594Z,27.7
2018-07-20T09:06:44.818Z,27.8
2018-07-20T09:16:44.056Z,27.6
2018-07-20T09:26:43.295Z,27.7
2018-07-20T09:36:42.539Z,28.3
2018-07-20T09:46:41.775Z,28.1
2018-07-20T09:56:41.023Z,28.3
2018-07-20T10:06:40.254Z,28.8
2018-07-20T10:16:39.493Z,28.8
2018-07-20T10:26:38.739Z,28.1
2018-07-20T10:36:37.988Z,28.1
2018-07-20T10:46:37.214Z,28.3
2018-07-20T10:56:36.452Z,28.4
2018-07-20T11:06:35.690Z,28.2
2018-07-20T11:16:34.932Z,27.9
2018-07-20T11:26:34.171Z,28.3
2018-07-20T11:36:33.415Z,28.4
2018-07-20T11:46:32.650Z,28.4
2018-07-20T11:56:31.894Z,28.4
2018-07-20T12:06:31.129Z,28.4
2018-07-20T12:16:30.371Z,28.1
2018-07-20T12:26:29.609Z,27.9
2018-07-20T12:36:28.850Z,27.4
2018-07-20T12:46:28.089Z,26.9
2018-07-20T12:56:27.329Z,26.8
2018-07-20T13:06:26.572Z,26.6
2018-07-20T13:16:25.808Z,26.4
2018-07-20T13:26:25.048Z,26.3
2018-07-20T13:36:24.286Z,26.1
2018-07-20T13:46:23.525Z,26.1
2018-07-20T13:56:22.764Z,26
2018-07-20T14:06:22.009Z,25.9
2018-07-20T14:16:21.243Z,25.9
2018-07-20T14:26:20.530Z,25.8
2018-07-20T14:36:19.722Z,25.7
2018-07-20T14:46:18.969Z,25.7
2018-07-20T14:56:18.207Z,25.6
2018-07-20T15:06:17.538Z,25.6
2018-07-20T15:16:16.677Z,25.6
2018-07-20T15:26:15.925Z,25.6
2018-07-20T15:36:15.156Z,25.4
2018-07-20T15:46:14.482Z,25.4
2018-07-20T15:56:13.634Z,25.3
2018-07-20T16:06:12.874Z,25.2
2018-07-20T16:16:12.118Z,25.1
2018-07-20T16:26:11.508Z,24.9
2018-07-20T16:36:10.594Z,24.8
2018-07-20T16:46:09.834Z,24.8
2018-07-20T16:56:09.075Z,24.6
2018-07-20T17:06:08.311Z,24.4
2018-07-20T17:16:07.550Z,24.3
2018-07-20T17:26:06.789Z,24.1
2018-07-20T17:36:06.032Z,24
2018-07-20T17:46:05.270Z,23.9
2018-07-20T17:56:04.512Z,23.8
2018-07-20T18:06:03.748Z,23.6
2018-07-20T18:16:02.990Z,23.4
2018-07-20T18:26:02.226Z,23.1
2018-07-20T18:36:01.467Z,22.9
2018-07-20T18:46:00.714Z,22.9
2018-07-20T18:56:00.025Z,22.9
2018-07-20T19:05:59.193Z,22.9
2018-07-20T19:15:58.440Z,22.9
2018-07-20T19:25:57.687Z,22.7
2018-07-20T19:35:56.920Z,22.7
2018-07-20T19:45:56.161Z,22.7
2018-07-20T19:55:55.405Z,22.7
2018-07-20T20:05:54.653Z,22.7
2018-07-20T20:15:53.891Z,22.6
2018-07-20T20:25:53.131Z,22.8
2018-07-20T20:35:52.437Z,22.8
2018-07-20T20:45:51.610Z,22.8
2018-07-20T20:55:50.857Z,22.8
2018-07-20T21:05:50.092Z,22.8
2018-07-20T21:15:49.328Z,22.8
2018-07-20T21:25:48.568Z,22.8
2018-07-20T21:35:47.806Z,22.7
2018-07-20T21:45:47.045Z,22.6
2018-07-20T21:55:46.287Z,22.6
2018-07-20T22:05:45.525Z,22.6
2018-07-20T22:15:44.762Z,22.6
2018-07-20T22:25:44.002Z,22.6
2018-07-20T22:35:43.291Z,22.6
2018-07-20T22:45:42.479Z,22.6
2018-07-20T22:55:41.719Z,22.6
2018-07-20T23:05:40.956Z,22.5
2018-07-20T23:15:40.194Z,22.5
2018-07-20T23:25:39.433Z,22.5
2018-07-20T23:35:38.673Z,22.4
2018-07-20T23:45:37.907Z,22.4
2018-07-20T23:55:37.147Z,22.3
